createdAt,value
2023-05-24T00:01:58.779Z,56.04
2023-05-24T00:05:01.974Z,56.05
2023-05-24T00:08:04.849Z,55.82
2023-05-24T00:11:08.713Z,55.46
2023-05-24T00:14:11.345Z,54.96
2023-05-24T00:17:14.049Z,55.06
2023-05-24T00:20:17.213Z,55.22
2023-05-24T00:23:19.900Z,54.43
2023-05-24T00:26:23.793Z,54.76
2023-05-24T00:29:26.320Z,54.41
2023-05-24T00:32:28.985Z,54.82
2023-05-24T00:35:31.600Z,55.06
2023-05-24T00:38:34.389Z,55.40
2023-05-24T00:41:38.335Z,55.33
2023-05-24T00:44:41.018Z,55.36
2023-05-24T00:47:43.788Z,55.17
2023-05-24T00:50:46.350Z,54.75
2023-05-24T00:53:49.893Z,54.54
2023-05-24T00:56:54.716Z,54.35
2023-05-24T00:59:57.819Z,53.89
2023-05-24T01:03:01.155Z,52.55
2023-05-24T01:06:04.737Z,51.90
2023-05-24T01:09:14.973Z,51.68
2023-05-24T01:12:24.343Z,52.37
2023-05-24T01:15:35.118Z,52.61
2023-05-24T01:18:41.112Z,52.46
2023-05-24T01:21:51.764Z,52.33
2023-05-24T01:25:02.239Z,52.12
2023-05-24T01:28:06.209Z,51.89
2023-05-24T01:31:09.009Z,51.77
2023-05-24T01:34:12.632Z,51.72
2023-05-24T01:37:15.412Z,51.63
2023-05-24T01:40:18.207Z,51.38
2023-05-24T01:43:29.576Z,51.51
2023-05-24T01:46:37.117Z,50.79
2023-05-24T01:49:43.864Z,51.34
2023-05-24T01:52:47.817Z,51.23
2023-05-24T01:55:51.817Z,51.25
2023-05-24T01:58:55.970Z,51.03
2023-05-24T02:01:58.984Z,51.32
2023-05-24T02:05:01.842Z,51.41
2023-05-24T02:08:04.552Z,51.43
2023-05-24T02:11:07.489Z,50.93
2023-05-24T02:14:11.641Z,51.21
2023-05-24T02:17:14.524Z,51.38
2023-05-24T02:20:18.044Z,51.49
2023-05-24T02:23:20.703Z,51.85
2023-05-24T02:26:23.344Z,52.09
2023-05-24T02:29:27.436Z,51.98
2023-05-24T02:32:30.038Z,52.14
2023-05-24T02:35:33.583Z,52.04
2023-05-24T02:38:37.152Z,52.83
2023-05-24T02:41:39.822Z,53.00
2023-05-24T02:44:47.630Z,52.66
2023-05-24T02:47:50.647Z,52.94
2023-05-24T02:50:53.360Z,52.93
2023-05-24T02:53:56.185Z,53.03
2023-05-24T02:56:58.926Z,53.16
2023-05-24T03:00:03.275Z,53.62
2023-05-24T03:03:06.881Z,53.08
2023-05-24T03:06:09.687Z,53.41
2023-05-24T03:09:12.401Z,53.32
2023-05-24T03:12:15.096Z,53.52
2023-05-24T03:15:19.161Z,53.89
2023-05-24T03:18:21.730Z,53.83
2023-05-24T03:21:25.320Z,53.47
2023-05-24T03:24:28.037Z,54.14
2023-05-24T03:27:30.634Z,54.06
2023-05-24T03:30:34.983Z,53.92
2023-05-24T03:33:37.576Z,54.44
2023-05-24T03:36:40.265Z,54.28
2023-05-24T03:39:42.954Z,54.64
2023-05-24T03:42:45.568Z,54.39
2023-05-24T03:45:49.601Z,54.58
2023-05-24T03:48:52.336Z,54.88
2023-05-24T03:51:55.050Z,54.28
2023-05-24T03:54:57.654Z,53.99
2023-05-24T03:58:00.164Z,54.23
2023-05-24T04:01:04.281Z,54.53
2023-05-24T04:04:06.939Z,54.68
2023-05-24T04:07:11.925Z,54.62
2023-05-24T04:10:14.513Z,54.82
2023-05-24T04:13:17.251Z,54.78
2023-05-24T04:16:21.228Z,55.15
2023-05-24T04:19:23.840Z,54.90
2023-05-24T04:22:26.450Z,54.60
2023-05-24T04:25:29.598Z,54.43
2023-05-24T04:28:33.271Z,54.16
2023-05-24T04:31:37.363Z,54.46
2023-05-24T04:34:42.589Z,54.85
2023-05-24T04:37:45.165Z,55.07
2023-05-24T04:40:48.008Z,54.82
2023-05-24T04:43:50.560Z,54.83
2023-05-24T04:46:54.564Z,54.57
2023-05-24T04:49:57.292Z,54.99
2023-05-24T04:52:59.962Z,54.54
2023-05-24T04:56:02.663Z,54.41
2023-05-24T04:59:05.779Z,54.63
2023-05-24T05:02:09.808Z,54.15
2023-05-24T05:05:12.769Z,54.46
2023-05-24T05:08:15.414Z,54.78
2023-05-24T05:11:18.679Z,54.01
2023-05-24T05:14:21.460Z,54.05
2023-05-24T05:17:25.545Z,54.05
2023-05-24T05:20:28.344Z,53.75
2023-05-24T05:23:31.051Z,53.33
2023-05-24T05:26:33.615Z,53.37
2023-05-24T05:29:36.162Z,53.67
2023-05-24T05:32:40.360Z,53.43
2023-05-24T05:35:43.291Z,52.82
2023-05-24T05:38:46.498Z,52.27
2023-05-24T05:41:49.379Z,52.48
2023-05-24T05:44:52.625Z,52.99
2023-05-24T05:47:56.743Z,51.98
2023-05-24T05:50:59.493Z,51.23
2023-05-24T05:54:02.067Z,50.84
2023-05-24T05:57:05.233Z,50.17
2023-05-24T06:00:09.171Z,50.03
2023-05-24T06:03:13.362Z,49.90
2023-05-24T06:06:16.158Z,49.54
2023-05-24T06:09:18.902Z,49.38
2023-05-24T06:12:21.523Z,49.28
2023-05-24T06:15:24.447Z,49.81
2023-05-24T06:18:30.429Z,48.69
2023-05-24T06:21:33.098Z,48.39
2023-05-24T06:24:35.657Z,48.32
2023-05-24T06:27:38.171Z,47.70
2023-05-24T06:30:41.250Z,47.44
2023-05-24T06:33:52.437Z,47.17
2023-05-24T06:37:05.548Z,47.93
2023-05-24T06:40:10.134Z,47.74
2023-05-24T06:43:12.888Z,47.86
2023-05-24T06:46:15.797Z,47.53
2023-05-24T06:49:19.741Z,46.81
2023-05-24T06:52:22.875Z,47.68
2023-05-24T06:55:25.581Z,47.86
2023-05-24T06:58:28.132Z,47.98
2023-05-24T07:01:30.855Z,49.45
2023-05-24T07:04:34.919Z,50.01
2023-05-24T07:07:37.723Z,49.54
2023-05-24T07:10:40.608Z,49.80
2023-05-24T07:13:43.433Z,49.50
2023-05-24T07:16:46.889Z,49.44
2023-05-24T07:19:51.662Z,49.04
2023-05-24T07:22:54.629Z,48.86
2023-05-24T07:25:57.278Z,48.75
2023-05-24T07:29:00.024Z,47.85
2023-05-24T07:32:02.874Z,48.70
2023-05-24T07:35:08.055Z,48.26
2023-05-24T07:38:11.728Z,49.11
2023-05-24T07:41:14.869Z,49.02
2023-05-24T07:44:18.318Z,48.23
2023-05-24T07:47:20.943Z,46.97
2023-05-24T07:50:25.256Z,46.31
2023-05-24T07:53:28.042Z,46.41
2023-05-24T07:56:30.540Z,46.40
2023-05-24T07:59:33.205Z,45.93
2023-05-24T08:02:36.125Z,45.89
2023-05-24T08:05:40.442Z,47.72
2023-05-24T08:08:43.278Z,46.59
2023-05-24T08:11:45.914Z,45.55
2023-05-24T08:14:48.499Z,44.96
2023-05-24T08:17:51.420Z,45.06
2023-05-24T08:20:55.341Z,44.97
2023-05-24T08:23:58.621Z,44.09
2023-05-24T08:27:01.301Z,45.18
2023-05-24T08:30:05.015Z,45.08
2023-05-24T08:33:07.598Z,45.09
2023-05-24T08:36:12.154Z,45.35
2023-05-24T08:39:14.889Z,44.10
2023-05-24T08:42:17.951Z,44.20
2023-05-24T08:45:22.896Z,43.58
2023-05-24T08:48:26.767Z,42.87
2023-05-24T08:51:30.979Z,42.11
2023-05-24T08:54:34.575Z,42.79
2023-05-24T08:57:39.533Z,42.96
2023-05-24T09:00:42.232Z,42.79
2023-05-24T09:03:46.440Z,42.49
2023-05-24T09:06:51.052Z,42.41
2023-05-24T09:09:58.349Z,42.50
2023-05-24T09:13:04.033Z,43.84
2023-05-24T09:16:07.360Z,44.44
2023-05-24T09:19:09.878Z,44.11
2023-05-24T09:22:16.234Z,43.32
2023-05-24T09:25:20.303Z,43.71
2023-05-24T09:28:24.747Z,45.42
2023-05-24T09:31:33.999Z,45.18
2023-05-24T09:34:40.346Z,45.08
2023-05-24T09:37:45.488Z,44.86
2023-05-24T09:40:48.203Z,45.22
2023-05-24T09:43:51.047Z,44.32
2023-05-24T09:46:53.809Z,43.63
2023-05-24T09:49:56.546Z,44.61
2023-05-24T09:53:01.119Z,45.42
2023-05-24T09:56:05.125Z,45.03
2023-05-24T09:59:09.894Z,46.36
2023-05-24T10:02:13.142Z,46.14
2023-05-24T10:05:15.748Z,46.12
2023-05-24T10:08:20.306Z,45.77
2023-05-24T10:11:22.961Z,45.81
2023-05-24T10:14:26.746Z,45.57
2023-05-24T10:17:29.544Z,45.47
2023-05-24T10:20:32.550Z,45.92
2023-05-24T10:23:39.327Z,46.89
2023-05-24T10:26:42.567Z,46.63
2023-05-24T10:29:50.021Z,47.38
2023-05-24T10:32:53.723Z,47.13
2023-05-24T10:35:57.349Z,47.02
2023-05-24T10:39:01.751Z,46.34
2023-05-24T10:42:09.421Z,45.70
2023-05-24T10:45:33.486Z,45.71
2023-05-24T10:48:39.717Z,44.76
2023-05-24T10:51:42.401Z,43.82
2023-05-24T10:55:05.442Z,43.66
2023-05-24T10:58:08.527Z,42.88
2023-05-24T11:01:14.631Z,42.25
2023-05-24T11:04:18.217Z,40.83
2023-05-24T11:07:21.101Z,40.43
2023-05-24T11:10:32.702Z,39.82
2023-05-24T11:13:35.373Z,38.37
2023-05-24T11:16:40.381Z,37.46
2023-05-24T11:19:47.982Z,37.21
2023-05-24T11:22:51.878Z,37.08
2023-05-24T11:25:57.173Z,36.89
2023-05-24T11:29:04.794Z,36.53
2023-05-24T11:32:08.224Z,35.53
2023-05-24T11:35:11.670Z,36.38
2023-05-24T11:38:14.884Z,34.90
2023-05-24T11:41:19.601Z,34.87
2023-05-24T11:44:22.888Z,35.06
2023-05-24T11:47:25.858Z,36.12
2023-05-24T11:50:28.819Z,35.56
2023-05-24T11:53:31.540Z,35.06
2023-05-24T11:56:35.757Z,33.85
2023-05-24T11:59:38.758Z,34.18
2023-05-24T12:02:42.339Z,34.67
2023-05-24T12:05:45.102Z,34.12
2023-05-24T12:08:47.857Z,33.28
2023-05-24T12:11:52.754Z,34.32
2023-05-24T12:14:56.647Z,33.36
2023-05-24T12:17:59.767Z,31.86
2023-05-24T12:21:02.897Z,30.45
2023-05-24T12:24:10.554Z,29.71
2023-05-24T12:27:14.647Z,29.10
2023-05-24T12:30:21.312Z,27.73
2023-05-24T12:33:24.884Z,28.08
2023-05-24T12:36:29.383Z,28.61
2023-05-24T12:39:34.352Z,28.50
2023-05-24T12:42:38.609Z,28.57
2023-05-24T12:45:41.403Z,28.53
2023-05-24T12:48:44.091Z,28.95
2023-05-24T12:51:49.116Z,27.77
2023-05-24T12:54:52.090Z,27.42
2023-05-24T12:57:56.465Z,26.16
2023-05-24T13:00:59.054Z,25.38
2023-05-24T13:04:01.765Z,24.90
2023-05-24T13:07:04.419Z,24.89
2023-05-24T13:10:08.101Z,25.13
2023-05-24T13:13:12.407Z,24.80
2023-05-24T13:16:15.133Z,24.54
2023-05-24T13:19:18.072Z,25.52
2023-05-24T13:22:21.270Z,25.58
2023-05-24T13:25:23.758Z,25.00
2023-05-24T13:28:28.601Z,24.51
2023-05-24T13:31:31.667Z,23.77
2023-05-24T13:34:34.266Z,24.47
2023-05-24T13:37:36.954Z,24.43
2023-05-24T13:40:41.877Z,22.63
2023-05-24T13:43:45.947Z,17.46
2023-05-24T13:46:48.614Z,13.88
2023-05-24T13:49:51.181Z,11.36
2023-05-24T13:52:53.831Z,10.58
2023-05-24T13:55:56.615Z,11.45
2023-05-24T13:59:00.914Z,10.45
2023-05-24T14:02:03.720Z,8.98
2023-05-24T14:05:24.903Z,7.58
2023-05-24T14:08:29.822Z,7.77
2023-05-24T14:11:32.622Z,11.80
2023-05-24T14:14:59.215Z,13.31
2023-05-24T14:18:00.827Z,12.03
2023-05-24T14:21:03.634Z,12.30
2023-05-24T14:24:06.467Z,13.42
2023-05-24T14:27:09.086Z,12.53
2023-05-24T14:30:13.949Z,12.23
2023-05-24T14:33:16.708Z,10.92
2023-05-24T14:36:19.735Z,8.86
2023-05-24T14:39:22.632Z,9.44
2023-05-24T14:42:25.211Z,12.20
2023-05-24T14:45:29.187Z,11.40
2023-05-24T14:48:31.815Z,14.09
2023-05-24T14:51:34.790Z,17.34
2023-05-24T14:54:37.680Z,17.97
2023-05-24T14:57:40.428Z,11.47
2023-05-24T15:00:45.131Z,10.92
2023-05-24T15:03:48.182Z,14.04
2023-05-24T15:06:50.964Z,18.23
2023-05-24T15:09:53.464Z,20.48
2023-05-24T15:12:56.036Z,21.79
2023-05-24T15:16:00.715Z,22.71
2023-05-24T15:19:03.765Z,23.24
2023-05-24T15:22:07.267Z,21.75
2023-05-24T15:25:10.753Z,14.92
2023-05-24T15:28:15.827Z,10.25
2023-05-24T15:31:20.529Z,8.60
2023-05-24T15:34:23.862Z,7.68
2023-05-24T15:37:26.664Z,8.96
2023-05-24T15:40:29.209Z,10.76
2023-05-24T15:43:31.802Z,12.26
2023-05-24T15:46:36.426Z,11.64
2023-05-24T15:49:40.194Z,14.25
2023-05-24T15:52:42.789Z,15.81
2023-05-24T15:55:47.126Z,18.09
2023-05-24T15:58:49.836Z,20.51
2023-05-24T16:01:54.154Z,21.95
2023-05-24T16:04:57.348Z,23.62
2023-05-24T16:08:00.389Z,24.41
2023-05-24T16:11:03.727Z,24.48
2023-05-24T16:14:06.555Z,22.78
2023-05-24T16:17:10.612Z,24.13
2023-05-24T16:20:13.277Z,24.12
2023-05-24T16:23:16.186Z,24.16
2023-05-24T16:26:18.720Z,19.98
2023-05-24T16:29:21.453Z,20.05
2023-05-24T16:32:25.360Z,21.96
2023-05-24T16:35:27.926Z,23.75
2023-05-24T16:38:30.493Z,25.41
2023-05-24T16:41:37.340Z,26.66
2023-05-24T16:44:39.962Z,27.02
2023-05-24T16:47:44.022Z,27.85
2023-05-24T16:50:46.736Z,27.96
2023-05-24T16:53:49.345Z,28.38
2023-05-24T16:56:54.460Z,28.93
2023-05-24T16:59:58.099Z,28.94
2023-05-24T17:03:02.478Z,29.27
2023-05-24T17:06:05.856Z,29.30
2023-05-24T17:09:08.349Z,27.42
2023-05-24T17:12:11.076Z,26.89
2023-05-24T17:15:13.799Z,27.32
2023-05-24T17:18:17.704Z,27.42
2023-05-24T17:21:21.161Z,28.15
2023-05-24T17:24:27.471Z,28.39
2023-05-24T17:27:30.004Z,29.36
2023-05-24T17:30:33.272Z,29.99
2023-05-24T17:33:37.116Z,30.56
2023-05-24T17:36:39.950Z,31.05
2023-05-24T17:39:42.493Z,31.56
2023-05-24T17:42:45.385Z,31.90
2023-05-24T17:45:48.038Z,32.49
2023-05-24T17:48:52.145Z,32.79
2023-05-24T17:51:55.067Z,32.66
2023-05-24T17:54:57.730Z,32.64
2023-05-24T17:58:00.479Z,32.72
2023-05-24T18:01:05.049Z,32.89
2023-05-24T18:04:09.044Z,33.10
2023-05-24T18:07:11.589Z,31.86
2023-05-24T18:10:14.150Z,32.55
2023-05-24T18:13:17.004Z,32.25
2023-05-24T18:16:19.679Z,32.08
2023-05-24T18:19:23.586Z,32.38
2023-05-24T18:22:26.319Z,31.67
2023-05-24T18:25:29.102Z,32.05
2023-05-24T18:28:31.845Z,32.41
2023-05-24T18:31:34.633Z,32.03
2023-05-24T18:34:38.642Z,31.72
2023-05-24T18:37:41.296Z,31.65
2023-05-24T18:40:44.184Z,31.21
2023-05-24T18:43:46.934Z,31.04
2023-05-24T18:46:50.083Z,31.42
2023-05-24T18:49:54.068Z,31.35
2023-05-24T18:52:56.608Z,31.60
2023-05-24T18:56:00.017Z,32.34
2023-05-24T18:59:02.692Z,32.26
2023-05-24T19:02:06.246Z,32.98
2023-05-24T19:05:11.092Z,32.90
2023-05-24T19:08:13.699Z,32.59
2023-05-24T19:11:16.431Z,32.79
2023-05-24T19:14:20.529Z,32.91
2023-05-24T19:17:24.355Z,35.86
2023-05-24T19:20:28.631Z,35.67
2023-05-24T19:23:31.350Z,36.28
2023-05-24T19:26:33.860Z,37.00
2023-05-24T19:29:39.812Z,38.02
2023-05-24T19:32:43.046Z,38.50
2023-05-24T19:35:47.084Z,38.64
2023-05-24T19:38:51.129Z,38.98
2023-05-24T19:41:53.912Z,38.75
2023-05-24T19:44:56.556Z,39.76
2023-05-24T19:47:59.303Z,39.89
2023-05-24T19:51:03.499Z,40.06
2023-05-24T19:54:06.068Z,40.20
2023-05-24T19:57:08.837Z,40.37
2023-05-24T20:00:13.851Z,40.58
2023-05-24T20:03:16.726Z,40.60
2023-05-24T20:06:20.783Z,41.59
2023-05-24T20:09:23.431Z,41.08
2023-05-24T20:12:26.062Z,41.00
2023-05-24T20:15:29.398Z,41.54
2023-05-24T20:18:35.001Z,42.22
2023-05-24T20:21:38.978Z,41.97
2023-05-24T20:24:41.551Z,42.84
2023-05-24T20:27:44.900Z,42.99
2023-05-24T20:30:47.567Z,43.29
2023-05-24T20:33:51.490Z,42.94
2023-05-24T20:36:55.636Z,43.70
2023-05-24T20:39:58.317Z,43.40
2023-05-24T20:43:01.133Z,43.49
2023-05-24T20:46:03.928Z,43.64
2023-05-24T20:49:06.582Z,44.18
2023-05-24T20:52:10.527Z,44.57
2023-05-24T20:55:13.035Z,44.65
2023-05-24T20:58:17.079Z,44.51
2023-05-24T21:01:19.996Z,44.89
2023-05-24T21:04:22.669Z,44.56
2023-05-24T21:07:26.642Z,45.14
2023-05-24T21:10:29.420Z,45.14
2023-05-24T21:13:32.106Z,45.67
2023-05-24T21:16:34.966Z,45.70
2023-05-24T21:19:37.863Z,45.92
2023-05-24T21:22:42.051Z,46.07
2023-05-24T21:25:44.825Z,46.48
2023-05-24T21:28:47.623Z,46.41
2023-05-24T21:31:50.210Z,47.14
2023-05-24T21:34:52.852Z,46.70
2023-05-24T21:37:57.173Z,46.00
2023-05-24T21:40:59.784Z,46.26
2023-05-24T21:44:02.333Z,46.28
2023-05-24T21:47:05.326Z,46.10
2023-05-24T21:50:08.671Z,45.43
2023-05-24T21:53:12.664Z,46.23
2023-05-24T21:56:15.440Z,45.82
2023-05-24T21:59:18.209Z,45.21
2023-05-24T22:02:21.515Z,45.13
2023-05-24T22:05:26.202Z,44.98
2023-05-24T22:08:31.873Z,45.97
2023-05-24T22:11:35.089Z,46.28
2023-05-24T22:14:38.127Z,46.71
2023-05-24T22:17:41.916Z,46.84
2023-05-24T22:20:44.967Z,47.24
2023-05-24T22:23:48.948Z,47.45
2023-05-24T22:26:52.457Z,47.67
2023-05-24T22:29:55.658Z,47.41
2023-05-24T22:32:58.250Z,47.08
2023-05-24T22:36:02.017Z,48.18
2023-05-24T22:39:07.292Z,48.64
2023-05-24T22:42:09.879Z,48.73
2023-05-24T22:45:13.998Z,49.16
2023-05-24T22:48:17.930Z,49.73
2023-05-24T22:51:20.764Z,48.46
2023-05-24T22:54:24.750Z,49.73
2023-05-24T22:57:27.570Z,49.70
2023-05-24T23:00:30.210Z,50.63
2023-05-24T23:03:32.872Z,49.87
2023-05-24T23:06:37.215Z,49.80
2023-05-24T23:09:41.515Z,49.76
2023-05-24T23:12:44.552Z,49.95
2023-05-24T23:15:48.464Z,51.09
2023-05-24T23:18:51.219Z,50.93
2023-05-24T23:21:55.351Z,52.19
2023-05-24T23:24:59.713Z,51.66
2023-05-24T23:28:02.604Z,51.84
2023-05-24T23:31:05.323Z,51.97
2023-05-24T23:34:08.295Z,52.06
2023-05-24T23:37:10.852Z,52.60
2023-05-24T23:40:15.155Z,52.58
2023-05-24T23:43:17.798Z,53.23
2023-05-24T23:46:20.656Z,53.50
2023-05-24T23:49:23.315Z,53.23
2023-05-24T23:52:26.044Z,53.59
2023-05-24T23:55:30.065Z,53.62
2023-05-24T23:58:33.508Z,52.44
